Time;durP1;ratioP1;P1;durP2;ratioP2;P2;SDS_P1;SDS_P2;PMS_P1;PMS_P2;Temp;Humidity;BMP_temperature;BMP_pressure;BME280_temperature;BME280_humidity;BME280_pressure;Samples;Min_cycle;Max_cycle;Signal;HPM_P1;HPM_P2
2022/01/27 00:05:20;;;;;;;1.30;1.15;;;19.70;52.50;;;;;;5074582;28;20086;-68
2022/01/27 00:10:50;;;;;;;1.75;1.50;;;19.70;52.50;;;;;;5074050;28;20042;-68
2022/01/27 00:13:17;;;;;;;1.45;1.35;;;19.70;52.50;;;;;;5093643;28;20047;-68
2022/01/27 00:15:45;;;;;;;1.50;1.40;;;19.70;52.60;;;;;;5093277;28;20432;-68
2022/01/27 00:18:30;;;;;;;1.45;1.30;;;19.70;52.50;;;;;;5093248;28;20491;-68
2022/01/27 00:20:55;;;;;;;1.50;1.40;;;19.70;52.50;;;;;;5093776;28;20020;-68
2022/01/27 00:23:21;;;;;;;1.85;1.75;;;19.70;52.60;;;;;;5075695;28;20020;-68
2022/01/27 00:25:47;;;;;;;1.90;1.48;;;19.70;52.50;;;;;;5093839;28;20123;-68
2022/01/27 00:28:12;;;;;;;1.75;1.63;;;19.70;52.50;;;;;;5093035;28;20105;-68
2022/01/27 00:30:38;;;;;;;1.80;1.70;;;19.70;52.60;;;;;;5093057;28;20032;-68
2022/01/27 00:33:04;;;;;;;1.90;1.38;;;19.70;52.50;;;;;;5092839;28;20020;-68
2022/01/27 00:35:31;;;;;;;1.55;1.45;;;19.70;52.50;;;;;;5092913;28;20027;-68
2022/01/27 00:37:57;;;;;;;1.33;1.23;;;19.70;52.60;;;;;;5092887;28;20022;-68
2022/01/27 00:40:22;;;;;;;1.75;1.42;;;19.70;52.60;;;;;;5092688;28;20024;-67
2022/01/27 00:42:48;;;;;;;1.50;1.40;;;19.70;52.60;;;;;;5093931;28;20103;-67
2022/01/27 00:45:14;;;;;;;2.35;1.70;;;19.70;52.60;;;;;;5092796;28;20448;-67
2022/01/27 00:47:39;;;;;;;1.35;1.25;;;19.70;52.60;;;;;;5092482;28;20097;-67
2022/01/27 00:50:05;;;;;;;1.85;1.40;;;19.80;52.70;;;;;;5093857;28;20059;-67
2022/01/27 00:52:36;;;;;;;2.60;1.63;;;19.70;52.60;;;;;;5092592;28;20024;-67
2022/01/27 00:55:02;;;;;;;4.93;1.50;;;19.80;52.70;;;;;;5092379;28;20043;-67
2022/01/27 00:59:59;;;;;;;1.48;1.38;;;19.80;52.70;;;;;;5092602;28;20444;-67
2022/01/27 01:07:57;;;;;;;1.67;1.58;;;19.80;52.80;;;;;;5072157;28;20024;-67
2022/01/27 01:11:11;;;;;;;1.95;1.40;;;19.80;52.80;;;;;;5084426;28;20031;-67
2022/01/27 01:15:45;;;;;;;1.60;1.50;;;19.80;52.90;;;;;;5092245;28;20497;-68
2022/01/27 01:33:46;;;;;;;1.77;1.67;;;19.80;53.00;;;;;;5091604;28;20472;-68
2022/01/27 01:36:26;;;;;;;1.70;1.60;;;19.70;52.90;;;;;;5093093;28;20073;-68
2022/01/27 01:38:51;;;;;;;1.50;1.40;;;19.80;52.90;;;;;;5091551;28;20066;-68
2022/01/27 01:41:17;;;;;;;1.70;1.60;;;19.80;53.00;;;;;;5091912;28;20116;-68
2022/01/27 01:43:43;;;;;;;1.73;1.60;;;19.80;53.00;;;;;;5092830;28;20616;-68
2022/01/27 01:46:08;;;;;;;1.90;1.70;;;19.80;53.00;;;;;;5092905;28;20024;-68
2022/01/27 01:48:34;;;;;;;1.63;1.52;;;19.70;52.90;;;;;;5091558;28;20426;-67
2022/01/27 01:51:02;;;;;;;1.50;1.30;;;19.70;52.90;;;;;;5092619;28;20082;-68
2022/01/27 01:53:27;;;;;;;1.50;1.40;;;19.70;52.90;;;;;;5091257;28;20069;-68
2022/01/27 01:55:53;;;;;;;1.63;1.50;;;19.70;53.00;;;;;;5092726;28;20271;-68
2022/01/27 01:58:19;;;;;;;1.60;1.50;;;19.80;53.00;;;;;;5091482;28;20023;-67
2022/01/27 02:00:44;;;;;;;1.77;1.67;;;19.70;52.90;;;;;;5091345;28;20031;-67
2022/01/27 02:03:10;;;;;;;1.48;1.38;;;19.70;53.00;;;;;;5075276;28;20028;-68
2022/01/27 02:05:42;;;;;;;1.63;1.52;;;19.70;53.00;;;;;;5071113;28;20059;-68
2022/01/27 02:19:11;;;;;;;1.58;1.48;;;19.70;53.20;;;;;;5091537;28;20020;-68
2022/01/27 02:21:48;;;;;;;1.55;1.45;;;19.70;53.20;;;;;;5090942;28;20020;-67
2022/01/27 02:24:14;;;;;;;1.40;1.30;;;19.70;53.20;;;;;;5091301;28;20028;-68
2022/01/27 02:26:41;;;;;;;1.48;1.30;;;19.70;53.20;;;;;;5090947;28;20024;-67
2022/01/27 02:29:07;;;;;;;1.70;1.60;;;19.70;53.20;;;;;;5092168;28;20040;-67
2022/01/27 02:31:32;;;;;;;1.77;1.67;;;19.70;53.20;;;;;;5092362;28;20054;-67
2022/01/27 02:34:00;;;;;;;1.60;1.50;;;19.70;53.20;;;;;;5092154;28;20024;-67
2022/01/27 02:36:26;;;;;;;1.50;1.40;;;19.70;53.20;;;;;;5091907;28;20017;-67
2022/01/27 02:38:52;;;;;;;1.55;1.40;;;19.70;53.20;;;;;;5090905;28;20022;-67
2022/01/27 02:41:18;;;;;;;1.55;1.23;;;19.80;53.20;;;;;;5091262;28;20021;-68
2022/01/27 02:43:43;;;;;;;1.65;1.55;;;19.70;53.20;;;;;;5090907;28;20478;-67
2022/01/27 02:46:09;;;;;;;1.73;1.55;;;19.80;53.20;;;;;;5093936;28;20106;-67
2022/01/27 02:48:35;;;;;;;1.55;1.38;;;19.70;53.20;;;;;;5095151;28;20570;-68
2022/01/27 02:51:01;;;;;;;1.75;1.40;;;19.80;53.30;;;;;;5094372;28;20028;-68
2022/01/27 02:53:26;;;;;;;1.48;1.38;;;19.70;53.20;;;;;;5094962;28;20107;-68
2022/01/27 02:55:52;;;;;;;2.88;1.55;;;19.80;53.30;;;;;;5094797;28;20024;-68
2022/01/27 02:58:17;;;;;;;2.10;1.35;;;19.80;53.30;;;;;;5096027;28;20016;-68
2022/01/27 03:00:43;;;;;;;1.50;1.40;;;19.70;53.30;;;;;;5095992;28;20030;-68
2022/01/27 03:03:09;;;;;;;1.77;1.67;;;19.70;53.30;;;;;;5078860;28;20364;-68
2022/01/27 03:05:34;;;;;;;1.60;1.50;;;19.80;53.30;;;;;;5074134;28;20032;-68
2022/01/27 03:08:00;;;;;;;1.65;1.50;;;19.80;53.40;;;;;;5075557;28;20028;-68
2022/01/27 03:10:28;;;;;;;2.38;1.60;;;19.80;53.60;;;;;;5084871;28;20024;-67
2022/01/27 03:12:59;;;;;;;2.22;1.70;;;19.80;53.40;;;;;;5092040;28;20028;-67
2022/01/27 03:15:25;;;;;;;1.52;1.42;;;19.80;53.40;;;;;;5094096;28;20027;-67
2022/01/27 03:17:51;;;;;;;1.95;1.50;;;19.80;53.40;;;;;;5092645;28;20028;-67
2022/01/27 03:20:16;;;;;;;2.53;1.42;;;19.80;53.40;;;;;;5092534;28;20115;-67
2022/01/27 03:22:42;;;;;;;1.85;1.75;;;19.70;53.40;;;;;;5094636;28;20497;-67
2022/01/27 03:25:08;;;;;;;2.85;1.50;;;19.70;53.40;;;;;;5093217;28;20027;-67
2022/01/27 03:27:34;;;;;;;2.13;1.67;;;19.80;53.50;;;;;;5074241;28;20071;-68
2022/01/27 03:30:00;;;;;;;2.25;1.60;;;19.70;53.40;;;;;;5072301;28;20036;-67
2022/01/27 03:32:27;;;;;;;2.25;1.38;;;19.80;53.40;;;;;;5074356;28;20013;-68
2022/01/27 03:34:53;;;;;;;1.67;1.42;;;19.70;53.40;;;;;;5091429;28;20034;-67
2022/01/27 03:37:19;;;;;;;2.38;1.67;;;19.80;53.50;;;;;;5092556;28;20541;-68
2022/01/27 03:39:44;;;;;;;1.65;1.55;;;19.80;53.50;;;;;;5094711;28;20103;-68
2022/01/27 03:42:10;;;;;;;2.00;1.50;;;19.80;53.50;;;;;;5093939;28;20095;-67
2022/01/27 03:44:36;;;;;;;1.92;1.60;;;19.70;53.50;;;;;;5094270;28;20779;-68
2022/01/27 03:47:02;;;;;;;2.15;1.75;;;19.80;54.50;;;;;;5093614;28;20031;-68
2022/01/27 03:49:28;;;;;;;1.75;1.50;;;19.70;53.50;;;;;;5093610;28;20433;-67
2022/01/27 03:51:59;;;;;;;1.70;1.60;;;19.80;53.50;;;;;;5094739;28;20080;-67
2022/01/27 03:54:24;;;;;;;2.50;1.65;;;19.70;53.50;;;;;;5093660;28;20016;-68
2022/01/27 03:56:50;;;;;;;1.55;1.42;;;19.80;53.60;;;;;;5094486;28;20023;-67
2022/01/27 03:59:16;;;;;;;1.77;1.67;;;19.80;53.50;;;;;;5095047;28;20023;-68
2022/01/27 04:01:41;;;;;;;1.80;1.58;;;19.70;53.50;;;;;;5089997;28;20025;-68
2022/01/27 04:04:07;;;;;;;1.40;1.30;;;19.70;53.50;;;;;;5073948;28;20085;-68
2022/01/27 04:06:35;;;;;;;4.85;1.67;;;19.70;53.50;;;;;;5056782;28;20032;-67
2022/01/27 04:09:02;;;;;;;1.67;1.55;;;19.70;53.50;;;;;;5073196;28;20107;-68
2022/01/27 04:11:28;;;;;;;1.50;1.40;;;19.80;53.60;;;;;;5093585;28;20032;-67
2022/01/27 04:13:53;;;;;;;2.05;1.85;;;19.70;53.50;;;;;;5093278;28;20179;-67
2022/01/27 04:16:19;;;;;;;1.75;1.60;;;19.70;53.50;;;;;;5093326;28;20487;-67
2022/01/27 04:18:46;;;;;;;3.13;1.58;;;19.70;53.60;;;;;;5093012;28;20032;-67
2022/01/27 04:21:12;;;;;;;1.75;1.65;;;19.70;53.60;;;;;;5093390;28;20026;-68
2022/01/27 04:23:37;;;;;;;2.85;1.50;;;19.70;53.60;;;;;;5094298;28;20031;-67
2022/01/27 04:26:05;;;;;;;1.65;1.40;;;19.70;53.50;;;;;;5094355;28;20028;-67
2022/01/27 04:28:33;;;;;;;1.60;1.50;;;19.70;53.60;;;;;;5093984;28;20092;-67
2022/01/27 04:31:02;;;;;;;2.17;1.50;;;19.70;53.60;;;;;;5092835;28;20024;-68
2022/01/27 04:33:32;;;;;;;1.58;1.48;;;19.70;53.60;;;;;;5094266;28;20089;-68
2022/01/27 04:36:00;;;;;;;1.58;1.48;;;19.70;53.60;;;;;;5094172;28;20394;-67
2022/01/27 04:38:55;;;;;;;3.08;1.35;;;19.70;53.60;;;;;;5094201;28;20021;-67
2022/01/27 04:41:39;;;;;;;1.60;1.50;;;19.70;53.70;;;;;;5093209;28;20028;-68
2022/01/27 04:46:45;;;;;;;1.33;1.23;;;19.70;53.80;;;;;;5093824;28;20034;-68
2022/01/27 04:49:12;;;;;;;1.38;1.27;;;19.70;53.80;;;;;;5093786;28;20032;-68
2022/01/27 04:51:37;;;;;;;1.50;1.40;;;19.70;53.80;;;;;;5092745;28;20035;-68
2022/01/27 04:54:10;;;;;;;1.67;1.58;;;19.70;53.80;;;;;;5092346;28;20032;-67
2022/01/27 04:56:38;;;;;;;1.38;1.27;;;19.70;53.80;;;;;;5093953;28;20021;-68
2022/01/27 04:59:10;;;;;;;1.70;1.60;;;19.70;53.80;;;;;;5093640;28;20061;-68
2022/01/27 05:01:42;;;;;;;1.38;1.27;;;19.70;53.80;;;;;;5088095;28;20103;-68
2022/01/27 05:04:12;;;;;;;1.50;1.40;;;19.70;53.80;;;;;;5073250;28;20069;-68
2022/01/27 05:06:37;;;;;;;1.40;1.30;;;19.70;53.90;;;;;;5056292;28;20020;-67
2022/01/27 05:09:04;;;;;;;2.08;1.60;;;19.70;53.80;;;;;;5071576;28;20405;-67
2022/01/27 05:11:33;;;;;;;1.42;1.33;;;19.70;53.80;;;;;;5092435;28;20024;-67
2022/01/27 05:14:19;;;;;;;1.60;1.50;;;19.70;53.80;;;;;;5093314;28;20020;-67
2022/01/27 05:16:44;;;;;;;1.80;1.60;;;19.70;53.80;;;;;;5092338;28;20107;-67
2022/01/27 05:19:10;;;;;;;1.63;1.50;;;19.70;53.90;;;;;;5091953;28;20533;-67
2022/01/27 05:21:36;;;;;;;1.85;1.50;;;19.70;53.90;;;;;;5092166;28;20034;-67
2022/01/27 05:24:02;;;;;;;1.70;1.60;;;19.70;53.80;;;;;;5093226;28;20052;-67
2022/01/27 05:26:28;;;;;;;1.38;1.20;;;19.70;53.90;;;;;;5093312;28;20505;-68
2022/01/27 05:28:53;;;;;;;1.60;1.48;;;19.70;53.90;;;;;;5091676;28;20047;-68
2022/01/27 05:31:19;;;;;;;1.60;1.50;;;19.70;53.90;;;;;;5091686;28;20036;-67
2022/01/27 05:33:44;;;;;;;1.95;1.75;;;19.70;53.90;;;;;;5091847;28;20020;-67
2022/01/27 05:36:10;;;;;;;1.67;1.58;;;19.70;53.90;;;;;;5091605;28;20047;-67
2022/01/27 05:38:37;;;;;;;2.08;1.40;;;19.70;53.90;;;;;;5092003;28;20505;-67
2022/01/27 05:41:03;;;;;;;1.60;1.45;;;19.70;53.90;;;;;;5092826;28;20021;-67
2022/01/27 05:43:29;;;;;;;1.63;1.25;;;19.70;53.90;;;;;;5091923;28;20024;-67
2022/01/27 05:45:55;;;;;;;1.60;1.40;;;19.70;54.00;;;;;;5091542;28;20386;-67
2022/01/27 05:48:20;;;;;;;2.30;1.45;;;19.70;53.90;;;;;;5092779;28;20063;-67
2022/01/27 05:50:46;;;;;;;1.30;1.20;;;19.70;53.90;;;;;;5091607;28;20052;-67
2022/01/27 05:53:12;;;;;;;1.45;1.35;;;19.70;54.00;;;;;;5092510;28;20063;-68
2022/01/27 05:55:37;;;;;;;1.38;1.27;;;19.70;54.10;;;;;;5092848;28;20032;-68
2022/01/27 05:58:03;;;;;;;1.65;1.35;;;19.70;54.00;;;;;;5092387;28;20071;-68
2022/01/27 06:00:29;;;;;;;1.98;1.40;;;19.70;54.00;;;;;;5091314;28;20027;-67
2022/01/27 06:02:55;;;;;;;1.50;1.40;;;19.60;53.90;;;;;;5077656;28;20364;-68
2022/01/27 06:05:20;;;;;;;1.50;1.40;;;19.70;54.00;;;;;;5071157;28;20395;-67
2022/01/27 06:07:46;;;;;;;1.40;1.30;;;19.60;53.90;;;;;;5072444;28;20024;-67
2022/01/27 06:10:12;;;;;;;1.50;1.40;;;19.70;54.00;;;;;;5081896;28;20505;-68
2022/01/27 06:12:45;;;;;;;1.60;1.50;;;19.70;54.00;;;;;;5091040;28;20110;-68
2022/01/27 06:15:10;;;;;;;1.23;1.13;;;19.70;54.00;;;;;;5092366;28;20085;-68
2022/01/27 06:17:36;;;;;;;1.40;1.30;;;19.60;55.00;;;;;;5092453;28;20024;-68
2022/01/27 06:20:03;;;;;;;1.25;1.15;;;19.60;54.00;;;;;;5092588;28;20074;-67
2022/01/27 06:22:28;;;;;;;1.30;1.20;;;19.60;54.00;;;;;;5092225;28;20023;-68
2022/01/27 06:24:54;;;;;;;1.45;1.35;;;19.70;54.00;;;;;;5091084;28;20024;-67
2022/01/27 06:27:20;;;;;;;1.58;1.40;;;19.70;54.10;;;;;;5092129;28;20560;-67
2022/01/27 06:29:45;;;;;;;1.50;1.40;;;19.60;54.00;;;;;;5090720;28;20052;-68
2022/01/27 06:32:11;;;;;;;1.50;1.30;;;19.70;54.10;;;;;;5091198;28;20397;-67
2022/01/27 06:34:37;;;;;;;1.70;1.60;;;19.60;54.00;;;;;;5092235;28;20530;-68
2022/01/27 06:37:03;;;;;;;1.52;1.42;;;19.70;54.10;;;;;;5090991;28;20020;-67
2022/01/27 06:39:28;;;;;;;2.38;1.77;;;19.60;54.00;;;;;;5091270;28;20103;-67
2022/01/27 06:41:54;;;;;;;1.88;1.50;;;19.70;54.10;;;;;;5091990;28;20382;-68
2022/01/27 06:44:19;;;;;;;1.40;1.30;;;19.70;54.10;;;;;;5092099;28;20024;-67
2022/01/27 06:46:45;;;;;;;1.35;1.25;;;19.70;54.30;;;;;;5092306;28;20375;-68
2022/01/27 06:49:16;;;;;;;1.40;1.30;;;19.70;54.10;;;;;;5091984;28;20516;-67
2022/01/27 06:51:43;;;;;;;1.27;1.17;;;19.70;54.10;;;;;;5090992;28;20051;-67
2022/01/27 06:54:09;;;;;;;1.40;1.30;;;19.60;54.10;;;;;;5081567;28;20028;-67
2022/01/27 06:56:34;;;;;;;2.55;1.30;;;19.60;54.10;;;;;;5068992;28;20008;-67
2022/01/27 06:59:00;;;;;;;1.25;1.10;;;19.70;54.10;;;;;;5070440;28;20027;-67
2022/01/27 07:01:26;;;;;;;1.40;1.30;;;19.60;54.10;;;;;;5070914;28;20036;-67
2022/01/27 07:03:51;;;;;;;1.88;1.30;;;19.60;54.10;;;;;;5089938;28;20035;-67
2022/01/27 07:06:17;;;;;;;1.33;1.23;;;19.70;54.20;;;;;;5088338;28;20403;-67
2022/01/27 07:08:43;;;;;;;2.90;2.70;;;19.60;54.10;;;;;;5087989;28;20371;-67
2022/01/27 07:11:09;;;;;;;3.38;3.03;;;19.60;53.50;;;;;;5072173;28;20031;-67
2022/01/27 07:13:40;;;;;;;3.00;2.80;;;19.50;53.20;;;;;;5083906;28;20024;-67
2022/01/27 07:16:08;;;;;;;3.78;2.70;;;19.40;53.10;;;;;;5074994;28;20051;-66
2022/01/27 07:18:34;;;;;;;3.15;2.70;;;19.40;53.00;;;;;;5087337;28;20021;-67
2022/01/27 07:21:00;;;;;;;3.92;2.90;;;19.30;53.00;;;;;;5070397;28;20111;-66
2022/01/27 07:23:25;;;;;;;4.18;2.97;;;19.30;53.00;;;;;;5062323;28;20032;-66
2022/01/27 07:25:51;;;;;;;2.67;2.47;;;19.20;53.00;;;;;;5076702;28;20028;-67
2022/01/27 07:28:16;;;;;;;3.30;2.60;;;19.20;53.00;;;;;;5087663;28;20105;-67
2022/01/27 07:30:42;;;;;;;3.00;2.70;;;19.20;52.90;;;;;;5075363;28;20547;-66
2022/01/27 07:33:08;;;;;;;2.58;2.38;;;19.20;52.90;;;;;;5085482;28;20074;-66
2022/01/27 07:35:33;;;;;;;3.50;3.20;;;19.20;52.90;;;;;;5085531;28;20035;-66
2022/01/27 07:37:59;;;;;;;3.17;2.95;;;19.10;52.80;;;;;;5078643;28;20021;-66
2022/01/27 07:40:25;;;;;;;2.90;2.65;;;19.10;52.80;;;;;;5089703;28;20512;-67
2022/01/27 07:42:50;;;;;;;3.88;2.67;;;19.10;52.70;;;;;;5079419;28;20012;-67
2022/01/27 07:45:16;;;;;;;5.20;2.85;;;19.10;52.80;;;;;;5094816;28;20031;-66
2022/01/27 07:47:42;;;;;;;4.95;3.17;;;19.00;52.70;;;;;;5095165;28;20024;-66
2022/01/27 07:50:08;;;;;;;6.35;3.65;;;19.00;52.70;;;;;;5094603;28;20020;-66
2022/01/27 07:52:33;;;;;;;6.80;3.53;;;19.00;52.70;;;;;;5093766;28;20023;-66
2022/01/27 07:54:59;;;;;;;8.85;3.85;;;19.00;52.70;;;;;;5093642;28;20040;-66
2022/01/27 07:57:24;;;;;;;5.53;2.97;;;19.00;52.70;;;;;;5093656;28;20099;-66
2022/01/27 07:59:50;;;;;;;7.22;3.47;;;19.00;52.70;;;;;;5094888;28;20477;-66
2022/01/27 08:02:16;;;;;;;6.05;3.30;;;19.00;52.70;;;;;;5084645;28;20055;-66
2022/01/27 08:04:42;;;;;;;6.95;3.25;;;18.90;52.70;;;;;;5082738;28;20032;-66
2022/01/27 08:07:10;;;;;;;5.28;3.47;;;19.00;52.70;;;;;;5089063;28;20483;-66
2022/01/27 08:09:35;;;;;;;6.43;3.50;;;18.90;52.70;;;;;;5074055;28;20107;-66
2022/01/27 08:12:01;;;;;;;6.25;3.03;;;19.00;52.70;;;;;;5085344;28;20107;-66
2022/01/27 08:14:27;;;;;;;6.45;3.55;;;18.90;52.60;;;;;;5092934;28;20391;-66
2022/01/27 08:16:52;;;;;;;8.18;3.30;;;18.90;52.60;;;;;;5093521;28;20027;-66
2022/01/27 08:19:18;;;;;;;9.95;4.07;;;18.90;52.60;;;;;;5094108;28;20021;-66
2022/01/27 08:21:44;;;;;;;6.68;3.10;;;18.90;52.60;;;;;;5074332;28;20051;-66
2022/01/27 08:24:10;;;;;;;9.13;3.50;;;18.90;52.60;;;;;;5073856;28;20032;-66
2022/01/27 08:29:17;;;;;;;6.47;3.53;;;18.90;52.60;;;;;;5074029;28;20044;-66
2022/01/27 08:31:54;;;;;;;6.72;3.60;;;18.90;52.60;;;;;;5074160;28;20034;-66
2022/01/27 08:34:58;;;;;;;6.93;3.53;;;18.80;52.50;;;;;;5073874;28;20024;-66
2022/01/27 08:37:21;;;;;;;4.78;3.45;;;18.80;52.50;;;;;;5078587;28;20075;-66
2022/01/27 08:39:47;;;;;;;6.78;3.78;;;18.80;52.60;;;;;;5092448;28;20024;-66
2022/01/27 08:42:12;;;;;;;8.07;3.70;;;18.80;52.50;;;;;;5092218;28;20096;-66
2022/01/27 08:44:39;;;;;;;7.05;2.85;;;18.80;52.50;;;;;;5093850;28;20082;-66
2022/01/27 08:47:05;;;;;;;5.88;2.95;;;18.80;52.40;;;;;;5092818;28;20107;-66
2022/01/27 08:49:30;;;;;;;4.13;2.95;;;18.80;52.40;;;;;;5092536;28;20393;-66
2022/01/27 08:51:56;;;;;;;6.03;3.17;;;18.80;52.40;;;;;;5092791;28;20028;-66
2022/01/27 08:54:22;;;;;;;8.27;4.30;;;18.80;52.40;;;;;;5092044;28;20024;-66
2022/01/27 08:56:48;;;;;;;5.75;3.45;;;18.80;52.40;;;;;;5092791;28;20027;-66
2022/01/27 08:59:14;;;;;;;7.53;3.42;;;18.80;52.40;;;;;;5092634;28;20028;-66
2022/01/27 09:01:40;;;;;;;6.30;3.72;;;18.80;52.40;;;;;;5088066;28;20051;-66
2022/01/27 09:04:07;;;;;;;6.88;3.60;;;18.80;52.40;;;;;;5073272;28;20020;-66
2022/01/27 09:06:33;;;;;;;7.20;3.38;;;18.80;52.40;;;;;;5072950;28;20043;-66
2022/01/27 09:08:59;;;;;;;7.38;3.33;;;18.80;52.40;;;;;;5072206;28;20028;-66
2022/01/27 09:11:24;;;;;;;6.70;3.03;;;18.80;52.40;;;;;;5079818;28;20032;-66
2022/01/27 09:13:53;;;;;;;4.97;3.47;;;18.80;52.40;;;;;;5093409;28;20081;-67
2022/01/27 09:16:19;;;;;;;7.65;3.42;;;18.70;52.30;;;;;;5092166;28;20024;-66
2022/01/27 09:18:44;;;;;;;3.90;3.05;;;18.80;52.30;;;;;;5093460;28;20103;-66
2022/01/27 09:21:16;;;;;;;4.53;3.38;;;18.70;52.30;;;;;;5092849;28;20401;-66
2022/01/27 09:23:41;;;;;;;4.32;3.05;;;18.70;52.30;;;;;;5091949;28;20031;-66
2022/01/27 09:26:21;;;;;;;4.28;3.42;;;18.80;52.30;;;;;;5093415;28;20032;-66
2022/01/27 09:28:47;;;;;;;3.97;2.78;;;18.80;52.30;;;;;;5093039;28;20148;-66
2022/01/27 09:31:13;;;;;;;3.33;2.85;;;18.70;52.30;;;;;;5093121;28;20073;-66
2022/01/27 09:33:38;;;;;;;3.75;2.88;;;18.80;52.30;;;;;;5091740;28;20024;-66
2022/01/27 09:36:11;;;;;;;5.90;2.88;;;18.70;52.30;;;;;;5092739;28;20085;-66
2022/01/27 09:38:36;;;;;;;4.93;3.17;;;18.80;52.30;;;;;;5093004;28;20391;-66
2022/01/27 09:41:02;;;;;;;3.45;3.10;;;18.70;52.30;;;;;;5093002;28;20028;-66
2022/01/27 09:43:28;;;;;;;4.57;3.22;;;18.80;52.40;;;;;;5091748;28;20024;-66
2022/01/27 09:45:55;;;;;;;3.53;3.22;;;18.70;52.30;;;;;;5091743;28;20035;-66
2022/01/27 09:48:20;;;;;;;5.90;2.97;;;18.70;52.30;;;;;;5091639;28;20017;-66
2022/01/27 09:50:50;;;;;;;6.85;3.60;;;18.70;52.30;;;;;;5092599;28;20035;-66
2022/01/27 09:53:16;;;;;;;3.47;2.80;;;18.80;52.30;;;;;;5091472;28;20103;-66
2022/01/27 09:55:41;;;;;;;3.95;2.90;;;18.70;52.20;;;;;;5091197;28;20043;-66
2022/01/27 09:58:07;;;;;;;4.03;2.83;;;18.80;52.30;;;;;;5091682;28;20094;-66
2022/01/27 10:00:33;;;;;;;4.38;3.10;;;18.70;52.20;;;;;;5091339;28;20498;-66
2022/01/27 10:03:13;;;;;;;4.68;3.40;;;18.70;52.20;;;;;;5076996;28;20031;-66
2022/01/27 10:05:39;;;;;;;3.47;3.08;;;18.80;52.20;;;;;;5070823;28;20025;-66
2022/01/27 10:08:17;;;;;;;4.13;2.47;;;18.70;52.30;;;;;;5072468;28;20024;-66
2022/01/27 10:10:46;;;;;;;5.50;3.40;;;18.70;52.20;;;;;;5073080;28;20029;-66
2022/01/27 10:13:38;;;;;;;4.70;2.63;;;18.70;52.20;;;;;;5091156;28;20023;-66
2022/01/27 10:16:06;;;;;;;4.68;2.60;;;18.80;52.10;;;;;;5091617;28;20095;-66
2022/01/27 10:18:35;;;;;;;3.83;2.72;;;18.70;52.30;;;;;;5091237;28;20012;-67
2022/01/27 10:21:01;;;;;;;3.60;2.70;;;18.70;52.20;;;;;;5092147;28;20023;-66
2022/01/27 10:23:31;;;;;;;3.47;2.67;;;18.70;52.30;;;;;;5092304;28;20020;-66
2022/01/27 10:26:07;;;;;;;4.30;2.78;;;18.70;52.10;;;;;;5091021;28;20024;-66
2022/01/27 10:31:20;;;;;;;4.00;2.67;;;18.70;52.20;;;;;;5091297;28;20036;-66
2022/01/27 10:34:02;;;;;;;4.60;2.65;;;18.70;52.10;;;;;;5090656;28;20033;-66
2022/01/27 10:36:31;;;;;;;3.65;2.88;;;18.70;52.10;;;;;;5091065;28;20028;-66
2022/01/27 10:39:00;;;;;;;3.95;2.42;;;18.70;52.20;;;;;;5092186;28;20051;-66
2022/01/27 10:41:26;;;;;;;5.97;3.50;;;18.70;52.20;;;;;;5091035;28;20076;-66
2022/01/27 10:44:14;;;;;;;4.95;2.70;;;18.70;52.20;;;;;;5092266;28;20020;-66
2022/01/27 10:46:49;;;;;;;3.05;2.72;;;18.70;52.00;;;;;;5092057;28;20031;-66
2022/01/27 10:49:27;;;;;;;3.00;2.60;;;18.70;52.20;;;;;;5090725;28;20047;-66
2022/01/27 10:51:54;;;;;;;3.10;2.80;;;18.70;52.20;;;;;;5091040;28;20092;-66
2022/01/27 10:54:38;;;;;;;2.78;2.53;;;18.70;52.20;;;;;;5092131;28;20090;-66
2022/01/27 10:57:10;;;;;;;2.85;2.15;;;18.70;52.10;;;;;;5092022;28;20049;-66
2022/01/27 10:59:36;;;;;;;3.40;2.60;;;18.70;52.10;;;;;;5090798;28;20103;-66
2022/01/27 11:02:06;;;;;;;3.00;2.70;;;18.70;52.10;;;;;;5084492;28;20504;-66
2022/01/27 11:04:39;;;;;;;2.85;2.42;;;18.70;52.10;;;;;;5070084;28;20044;-66
2022/01/27 11:07:17;;;;;;;2.78;2.55;;;18.70;52.10;;;;;;5073247;28;20028;-66
2022/01/27 11:09:44;;;;;;;2.58;2.38;;;18.70;52.10;;;;;;5075426;28;20117;-66
2022/01/27 11:12:17;;;;;;;2.92;2.25;;;18.70;52.10;;;;;;5089890;28;20143;-66
2022/01/27 11:14:43;;;;;;;4.10;2.55;;;18.60;52.10;;;;;;5094515;28;20016;-66
2022/01/27 11:17:12;;;;;;;3.75;2.53;;;18.60;52.00;;;;;;5094110;28;20410;-66
2022/01/27 11:27:31;;;;;;;2.70;2.35;;;18.60;52.00;;;;;;5039557;28;20040;-66
2022/01/27 11:30:11;;;;;;;2.50;2.13;;;18.60;52.10;;;;;;5053034;28;20064;-66
2022/01/27 11:32:50;;;;;;;2.58;2.13;;;18.70;52.00;;;;;;5037372;28;20036;-66
2022/01/27 11:35:20;;;;;;;3.08;2.58;;;18.70;51.90;;;;;;5036607;28;20090;-66
2022/01/27 11:38:04;;;;;;;2.90;2.30;;;18.70;52.10;;;;;;5036357;28;20036;-66
2022/01/27 11:40:42;;;;;;;3.83;2.55;;;18.70;51.90;;;;;;5019926;28;20512;-66
2022/01/27 11:43:18;;;;;;;2.50;2.30;;;18.70;52.00;;;;;;5036230;28;20036;-66
2022/01/27 11:45:47;;;;;;;2.45;2.08;;;18.60;52.00;;;;;;5052769;28;20419;-66
2022/01/27 11:48:15;;;;;;;2.00;1.80;;;18.60;52.00;;;;;;5019480;28;20021;-66
2022/01/27 11:51:12;;;;;;;2.40;2.15;;;18.60;52.00;;;;;;5019832;28;20036;-66
2022/01/27 11:53:43;;;;;;;2.38;2.17;;;18.70;51.90;;;;;;5036497;28;20033;-66
2022/01/27 11:56:27;;;;;;;2.80;2.10;;;18.60;52.00;;;;;;5052684;28;20416;-66
2022/01/27 11:58:53;;;;;;;1.95;1.75;;;18.60;51.90;;;;;;5052405;28;20057;-66
2022/01/27 12:01:21;;;;;;;2.55;2.05;;;18.60;52.00;;;;;;5033996;28;20138;-66
2022/01/27 12:04:06;;;;;;;3.03;2.03;;;18.60;52.00;;;;;;5040991;28;20032;-66
2022/01/27 12:06:33;;;;;;;2.75;2.17;;;18.70;51.90;;;;;;5073487;28;20028;-66
2022/01/27 12:09:17;;;;;;;2.20;2.03;;;18.60;52.00;;;;;;5073242;28;20387;-66
2022/01/27 12:11:55;;;;;;;2.22;1.98;;;18.70;51.90;;;;;;5084748;28;20047;-66
2022/01/27 12:14:24;;;;;;;3.10;2.08;;;18.60;52.00;;;;;;5093472;28;20023;-66
2022/01/27 12:17:08;;;;;;;1.98;1.80;;;18.60;52.00;;;;;;5092912;28;20081;-66
2022/01/27 12:19:46;;;;;;;2.70;1.95;;;18.70;51.80;;;;;;5094476;28;20016;-66
2022/01/27 12:22:14;;;;;;;2.05;1.85;;;18.60;51.80;;;;;;5094440;28;20031;-66
2022/01/27 12:24:49;;;;;;;2.90;2.13;;;18.60;52.00;;;;;;5094512;28;20077;-66
2022/01/27 12:27:18;;;;;;;2.75;2.08;;;18.60;51.90;;;;;;5093256;28;20032;-66
2022/01/27 12:29:54;;;;;;;2.92;1.85;;;18.60;52.00;;;;;;5092635;28;20568;-66
2022/01/27 12:32:22;;;;;;;2.50;1.98;;;18.60;51.90;;;;;;5093237;28;20055;-66
2022/01/27 12:34:56;;;;;;;2.10;1.90;;;18.60;51.90;;;;;;5093026;28;20024;-66
2022/01/27 12:37:23;;;;;;;2.10;1.90;;;18.60;51.80;;;;;;5093093;28;20026;-66
2022/01/27 12:39:59;;;;;;;4.38;2.10;;;18.60;51.90;;;;;;5093007;28;20051;-66
2022/01/27 12:42:33;;;;;;;1.77;1.50;;;18.60;51.90;;;;;;5092857;28;20035;-66
2022/01/27 12:45:00;;;;;;;2.10;1.90;;;18.60;51.80;;;;;;5092727;28;20093;-66
2022/01/27 12:47:27;;;;;;;1.90;1.80;;;18.60;51.80;;;;;;5093089;28;20020;-66
2022/01/27 12:50:05;;;;;;;2.50;1.88;;;18.60;51.80;;;;;;5092814;28;20020;-66
2022/01/27 12:52:34;;;;;;;1.92;1.73;;;18.60;51.80;;;;;;5092808;28;20035;-66
2022/01/27 12:55:00;;;;;;;1.88;1.63;;;18.60;51.90;;;;;;5092573;28;20027;-66
2022/01/27 12:57:30;;;;;;;1.73;1.60;;;18.60;51.80;;;;;;5093834;28;20069;-66
2022/01/27 12:59:56;;;;;;;2.17;1.55;;;18.60;51.80;;;;;;5092302;28;20028;-66
2022/01/27 13:02:23;;;;;;;2.17;1.98;;;18.60;51.80;;;;;;5082050;28;20071;-66
2022/01/27 13:04:49;;;;;;;2.40;1.80;;;18.60;51.80;;;;;;5071991;28;20390;-66
2022/01/27 13:07:15;;;;;;;1.77;1.42;;;18.60;51.80;;;;;;5072264;28;20032;-66
2022/01/27 13:09:40;;;;;;;2.72;1.80;;;18.60;51.80;;;;;;5055778;28;20383;-66
2022/01/27 13:12:15;;;;;;;1.30;1.20;;;18.60;51.80;;;;;;5085768;28;20028;-66
2022/01/27 13:15:01;;;;;;;1.58;1.48;;;18.60;51.80;;;;;;5075113;28;20428;-66
2022/01/27 13:17:34;;;;;;;1.92;1.70;;;18.70;51.70;;;;;;5092356;28;20095;-66
2022/01/27 13:20:29;;;;;;;1.52;1.42;;;18.60;51.80;;;;;;5092418;28;20363;-66
2022/01/27 13:23:02;;;;;;;1.60;1.50;;;18.70;51.60;;;;;;5093185;28;20036;-66
2022/01/27 13:25:37;;;;;;;1.50;1.40;;;18.60;51.80;;;;;;5092072;28;20020;-66
2022/01/27 13:28:07;;;;;;;1.48;1.33;;;18.60;51.70;;;;;;5091297;28;20040;-66
2022/01/27 13:30:35;;;;;;;2.20;1.63;;;18.60;51.80;;;;;;5091807;28;20482;-66
2022/01/27 13:33:02;;;;;;;1.67;1.27;;;18.60;51.80;;;;;;5091800;28;20552;-66
2022/01/27 13:35:27;;;;;;;1.48;1.38;;;18.60;51.80;;;;;;5092086;28;20470;-66
2022/01/27 13:37:57;;;;;;;1.50;1.40;;;18.60;51.80;;;;;;5091917;28;20028;-66
2022/01/27 13:43:13;;;;;;;1.70;1.60;;;18.60;51.70;;;;;;5092809;28;20030;-66
2022/01/27 13:45:38;;;;;;;2.65;1.70;;;18.60;51.80;;;;;;5091881;28;20095;-66
2022/01/27 13:48:21;;;;;;;1.98;1.50;;;18.60;52.80;;;;;;5091678;28;20410;-66
2022/01/27 13:50:53;;;;;;;;;;;18.70;51.60;;;;;;5075346;28;20020;-66
2022/01/27 13:53:20;;;;;;;1.83;1.50;;;18.50;51.60;;;;;;5092700;28;19908;-66
2022/01/27 13:55:58;;;;;;;1.73;1.27;;;18.50;51.90;;;;;;5091556;28;20297;-66
2022/01/27 13:58:25;;;;;;;1.30;1.20;;;18.60;51.80;;;;;;5091233;28;20424;-66